Time;durP1;ratioP1;P1;durP2;ratioP2;P2;SDS_P1;SDS_P2;PMS_P1;PMS_P2;Temp;Humidity;BMP_temperature;BMP_pressure;BME280_temperature;BME280_humidity;BME280_pressure;Samples;Min_cycle;Max_cycle;Signal;HPM_P1;HPM_P2
2023/07/14 00:01:17;;;;;;;4.45;1.83;;;;;;;17.17;52.60;95953.47;4933734;29;20186;-84
2023/07/14 00:03:43;;;;;;;5.38;1.83;;;;;;;17.06;51.85;95948.66;4918280;29;20193;-83
2023/07/14 00:06:11;;;;;;;6.43;1.60;;;;;;;17.14;51.48;95959.06;4942304;29;20205;-83
2023/07/14 00:08:39;;;;;;;4.10;1.58;;;;;;;17.15;51.13;95950.22;4930938;29;20196;-84
2023/07/14 00:11:11;;;;;;;2.65;1.40;;;;;;;17.14;51.54;95948.59;4939008;29;20215;-84
2023/07/14 00:13:36;;;;;;;5.85;1.50;;;;;;;17.02;52.70;95951.78;4930397;29;20554;-84
2023/07/14 00:16:02;;;;;;;4.18;1.60;;;;;;;17.05;53.11;95952.28;4931548;28;20292;-84
2023/07/14 00:18:27;;;;;;;2.72;1.30;;;;;;;16.98;53.54;95935.59;4999121;28;20282;-84
2023/07/14 00:20:52;;;;;;;8.10;1.75;;;;;;;16.87;54.36;95938.63;4932282;29;20190;-84
2023/07/14 00:23:17;;;;;;;2.97;1.58;;;;;;;16.78;54.30;95932.63;4998316;28;20190;-84
2023/07/14 00:25:43;;;;;;;3.65;1.50;;;;;;;16.74;54.54;95935.81;4999136;28;20247;-84
2023/07/14 00:28:19;;;;;;;5.22;1.48;;;;;;;16.77;54.82;95930.19;4939457;29;20195;-84
2023/07/14 00:30:46;;;;;;;3.65;1.73;;;;;;;16.77;54.17;95924.94;4923682;28;20695;-83
2023/07/14 00:33:15;;;;;;;4.28;1.80;;;;;;;16.69;54.51;95934.50;5013767;28;20214;-84
2023/07/14 00:35:41;;;;;;;3.10;1.50;;;;;;;16.64;54.30;95936.81;4937103;28;20281;-83
2023/07/14 00:38:07;;;;;;;2.78;1.52;;;;;;;16.73;53.57;95928.94;4930321;29;20214;-84
2023/07/14 00:40:42;;;;;;;4.65;1.70;;;;;;;16.66;54.30;95928.78;4931609;28;20182;-84
2023/07/14 00:43:17;;;;;;;5.22;1.60;;;;;;;16.69;54.24;95925.81;4929209;28;20194;-84
2023/07/14 00:45:43;;;;;;;3.30;1.70;;;;;;;16.69;53.71;95931.88;4930458;28;20243;-83
2023/07/14 00:48:12;;;;;;;8.05;1.60;;;;;;;16.70;53.56;95928.31;4928485;29;20212;-86
2023/07/14 00:50:41;;;;;;;1.88;1.52;;;;;;;16.67;53.72;95925.16;4905492;28;20205;-84
2023/07/14 00:53:12;;;;;;;5.32;1.80;;;;;;;16.72;53.52;95927.31;5012218;28;20251;-84
2023/07/14 00:55:40;;;;;;;3.78;1.65;;;;;;;16.75;53.38;95921.69;4925783;29;20190;-84
2023/07/14 00:58:20;;;;;;;3.92;1.73;;;;;;;16.77;53.23;95919.69;4932598;29;20200;-85
2023/07/14 01:01:03;;;;;;;4.65;1.90;;;;;;;16.81;53.20;95921.00;4923058;29;20280;-84
2023/07/14 01:03:29;;;;;;;2.22;1.60;;;;;;;16.86;52.63;95919.47;4920954;28;20194;-83
2023/07/14 01:05:56;;;;;;;5.32;1.88;;;;;;;16.78;52.90;95932.63;4931829;28;20289;-85
2023/07/14 01:08:22;;;;;;;2.85;1.60;;;;;;;16.88;52.77;95927.19;4930077;28;20190;-85
2023/07/14 01:10:47;;;;;;;5.25;1.55;;;;;;;16.91;52.34;95926.81;4936422;29;20225;-85
2023/07/14 01:13:13;;;;;;;5.55;1.70;;;;;;;16.91;52.41;95921.56;5005300;28;20656;-85
2023/07/14 01:15:39;;;;;;;4.30;1.45;;;;;;;16.97;52.05;95918.25;4929915;28;20289;-85
2023/07/14 01:18:05;;;;;;;6.05;2.05;;;;;;;17.08;51.73;95914.38;4931150;28;20191;-85
2023/07/14 01:20:30;;;;;;;2.42;1.33;;;;;;;17.12;51.25;95907.75;4921850;29;20192;-85
2023/07/14 01:23:01;;;;;;;2.47;1.45;;;;;;;17.11;51.46;95912.19;4930082;29;20733;-84
2023/07/14 01:25:38;;;;;;;2.67;1.52;;;;;;;17.15;51.21;95913.47;4940459;29;20324;-85
2023/07/14 01:28:09;;;;;;;5.05;1.58;;;;;;;16.97;51.76;95900.69;4902245;29;20218;-85
2023/07/14 01:30:36;;;;;;;2.40;1.50;;;;;;;17.13;51.18;95898.88;4938685;28;20218;-84
2023/07/14 01:33:01;;;;;;;4.78;1.73;;;;;;;17.09;51.17;95893.19;4930410;28;20195;-84
2023/07/14 01:35:32;;;;;;;4.95;1.60;;;;;;;17.15;51.07;95899.53;4934027;28;20562;-85
2023/07/14 01:37:58;;;;;;;2.33;1.30;;;;;;;17.12;51.14;95892.81;4925217;28;20240;-85
2023/07/14 01:40:24;;;;;;;2.08;1.60;;;;;;;17.06;50.98;95892.75;4929846;29;20183;-84
2023/07/14 01:42:52;;;;;;;4.60;1.60;;;;;;;17.12;51.16;95886.75;4931385;28;20233;-84
2023/07/14 01:45:19;;;;;;;2.92;1.60;;;;;;;17.13;50.67;95889.19;4923663;28;20248;-85
2023/07/14 01:47:46;;;;;;;3.50;1.60;;;;;;;17.09;51.07;95887.13;4929858;28;20650;-84
2023/07/14 01:50:26;;;;;;;2.83;1.85;;;;;;;17.13;51.25;95889.19;4939918;28;20189;-84
2023/07/14 01:52:55;;;;;;;3.10;1.30;;;;;;;17.06;51.32;95888.31;4920051;28;20193;-83
2023/07/14 01:55:23;;;;;;;3.15;1.70;;;;;;;17.01;51.38;95884.56;4937369;28;20653;-84
2023/07/14 01:57:52;;;;;;;4.28;1.40;;;;;;;17.08;51.17;95882.88;4941806;29;20213;-84
2023/07/14 02:00:17;;;;;;;5.60;1.50;;;;;;;17.05;51.01;95873.56;4932357;29;20182;-84
2023/07/14 02:02:44;;;;;;;2.63;1.27;;;;;;;17.08;50.94;95875.00;4938009;29;20548;-84
2023/07/14 02:05:30;;;;;;;4.38;1.60;;;;;;;17.07;51.14;95878.63;4929322;28;20217;-84
2023/07/14 02:07:59;;;;;;;4.60;1.77;;;;;;;17.07;51.17;95879.44;4942646;28;20186;-84
2023/07/14 02:10:25;;;;;;;3.13;2.13;;;;;;;17.06;51.17;95883.06;4954552;28;20289;-85
2023/07/14 02:12:50;;;;;;;2.95;1.77;;;;;;;17.06;51.08;95879.63;4931997;29;20246;-84
2023/07/14 02:15:23;;;;;;;3.65;1.85;;;;;;;17.08;50.85;95875.81;4938057;29;20190;-83
2023/07/14 02:17:49;;;;;;;3.72;1.35;;;;;;;17.05;51.15;95878.81;4937413;29;20694;-85
2023/07/14 02:20:23;;;;;;;2.10;1.60;;;;;;;17.07;50.98;95873.38;4934829;29;20186;-84
2023/07/14 02:22:49;;;;;;;4.45;1.65;;;;;;;17.11;50.81;95872.81;4944367;29;20561;-84
2023/07/14 02:25:16;;;;;;;3.55;1.45;;;;;;;17.10;51.05;95867.75;4935283;28;20201;-85
2023/07/14 02:27:42;;;;;;;4.07;1.50;;;;;;;17.07;51.07;95866.31;4933728;29;20217;-84
2023/07/14 02:30:14;;;;;;;5.90;2.05;;;;;;;17.08;51.19;95867.94;4934966;28;20194;-85
2023/07/14 02:32:44;;;;;;;3.15;1.50;;;;;;;17.15;50.63;95871.47;4923451;29;20249;-84
2023/07/14 02:35:21;;;;;;;4.78;1.73;;;;;;;17.15;50.61;95866.22;4921590;29;20197;-85
2023/07/14 02:38:01;;;;;;;4.25;1.60;;;;;;;17.14;50.55;95861.97;4918488;28;20214;-85
2023/07/14 02:40:46;;;;;;;3.17;1.88;;;;;;;17.18;50.56;95855.38;4911407;29;20293;-85
2023/07/14 02:43:14;;;;;;;4.57;1.92;;;;;;;17.09;51.11;95853.00;4920264;28;20199;-85
2023/07/14 02:45:44;;;;;;;3.85;1.75;;;;;;;17.11;50.74;95851.84;4934160;28;20545;-84
2023/07/14 02:48:13;;;;;;;2.28;1.63;;;;;;;17.12;50.71;95860.50;4932493;28;20197;-84
2023/07/14 02:50:38;;;;;;;5.28;1.80;;;;;;;17.12;50.65;95863.94;4934985;28;20213;-84
2023/07/14 02:53:04;;;;;;;2.22;1.60;;;;;;;17.12;50.67;95858.69;4945210;28;20198;-84
2023/07/14 02:55:29;;;;;;;7.05;1.92;;;;;;;17.06;51.07;95854.19;4933848;29;20198;-84
2023/07/14 02:57:54;;;;;;;3.22;1.70;;;;;;;17.10;50.67;95847.59;4928218;28;20191;-83
2023/07/14 03:00:20;;;;;;;5.10;1.50;;;;;;;17.11;51.15;95849.22;4990483;28;20195;-85
2023/07/14 03:02:45;;;;;;;5.68;1.90;;;;;;;17.03;51.06;95844.03;4931980;28;20186;-84
2023/07/14 03:05:11;;;;;;;3.85;1.80;;;;;;;17.03;50.95;95840.59;4940244;29;20252;-84
2023/07/14 03:07:37;;;;;;;3.75;1.90;;;;;;;17.08;50.88;95839.09;4932266;29;20210;-84
2023/07/14 03:10:03;;;;;;;4.93;1.77;;;;;;;17.05;51.08;95836.84;4903845;28;20710;-83
2023/07/14 03:12:28;;;;;;;4.70;1.80;;;;;;;17.08;51.00;95830.41;4927811;28;20195;-84
2023/07/14 03:14:54;;;;;;;2.92;1.63;;;;;;;17.14;50.58;95833.13;4932223;28;20189;-83
2023/07/14 03:17:19;;;;;;;2.38;1.45;;;;;;;17.09;50.70;95827.59;5007850;28;20261;-84
2023/07/14 03:19:44;;;;;;;4.40;1.67;;;;;;;17.14;50.74;95825.25;4933372;29;20198;-84
2023/07/14 03:22:10;;;;;;;1.85;1.52;;;;;;;17.15;50.55;95828.69;4934062;29;20252;-83
2023/07/14 03:24:35;;;;;;;2.17;1.90;;;;;;;17.15;51.00;95837.38;4933801;29;20223;-84
2023/07/14 03:27:02;;;;;;;2.63;1.38;;;;;;;17.12;50.70;95835.09;5000242;28;20288;-84
2023/07/14 03:29:27;;;;;;;2.40;1.45;;;;;;;17.09;50.83;95832.03;4941156;28;20185;-83
2023/07/14 03:31:52;;;;;;;1.50;1.30;;;;;;;17.11;50.86;95830.03;4933163;28;20202;-84
2023/07/14 03:34:17;;;;;;;3.20;1.60;;;;;;;17.15;50.75;95829.50;4991982;28;20198;-84
2023/07/14 03:36:43;;;;;;;3.33;1.65;;;;;;;17.10;50.68;95818.72;4931099;28;20217;-84
2023/07/14 03:39:25;;;;;;;2.33;1.70;;;;;;;17.13;50.60;95820.97;4931322;28;20205;-84
2023/07/14 03:41:51;;;;;;;3.67;1.73;;;;;;;17.12;50.89;95818.53;4925209;28;20178;-85
2023/07/14 03:44:17;;;;;;;5.43;1.60;;;;;;;17.16;50.72;95818.00;4913565;29;20178;-84
2023/07/14 03:46:43;;;;;;;4.43;1.45;;;;;;;17.24;50.54;95827.59;4999433;28;20587;-85
2023/07/14 03:49:08;;;;;;;7.53;1.90;;;;;;;17.30;50.40;95823.41;4934396;28;20272;-84
2023/07/14 03:51:33;;;;;;;3.13;1.50;;;;;;;17.37;50.04;95824.31;4933447;28;20206;-84
2023/07/14 03:53:59;;;;;;;3.55;1.60;;;;;;;17.47;49.94;95827.47;5011685;28;20690;-83
2023/07/14 03:56:25;;;;;;;2.75;1.80;;;;;;;17.56;49.77;95816.66;4931771;28;20210;-84
2023/07/14 03:58:51;;;;;;;3.67;1.73;;;;;;;17.64;49.35;95830.69;4932783;28;20578;-84
2023/07/14 04:01:16;;;;;;;4.18;1.70;;;;;;;17.91;48.73;95827.41;4943079;29;20190;-84
2023/07/14 04:03:41;;;;;;;6.65;1.58;;;;;;;18.24;47.82;95826.91;4948661;28;20186;-84
2023/07/14 04:06:07;;;;;;;1.98;1.40;;;;;;;19.07;46.17;95835.88;4989046;28;20272;-84
2023/07/14 04:08:39;;;;;;;4.13;1.40;;;;;;;19.82;43.83;95829.78;4932036;28;20198;-84
2023/07/14 04:11:05;;;;;;;2.67;1.77;;;;;;;20.16;43.37;95825.41;5000199;28;20229;-84
2023/07/14 04:13:31;;;;;;;2.67;1.75;;;;;;;20.32;42.91;95822.41;4939537;28;20204;-84
2023/07/14 04:15:57;;;;;;;3.35;1.30;;;;;;;19.84;43.79;95817.22;4919596;29;20216;-84
2023/07/14 04:18:23;;;;;;;3.63;1.50;;;;;;;19.67;43.65;95819.41;4907178;28;20281;-85
2023/07/14 04:20:49;;;;;;;2.42;1.55;;;;;;;19.51;44.00;95812.59;4921844;29;20189;-84
2023/07/14 04:23:16;;;;;;;2.50;1.30;;;;;;;19.18;44.99;95809.03;4935092;28;20215;-86
2023/07/14 04:25:41;;;;;;;5.30;1.70;;;;;;;18.90;45.64;95806.41;4945885;28;20190;-85
2023/07/14 04:28:07;;;;;;;3.67;1.55;;;;;;;18.85;46.35;95816.72;4986997;28;20240;-84
2023/07/14 04:30:32;;;;;;;6.40;1.80;;;;;;;18.71;46.74;95805.28;4930962;28;20252;-83
2023/07/14 04:32:58;;;;;;;4.05;1.30;;;;;;;18.80;46.16;95803.31;4931710;29;20776;-83
2023/07/14 04:35:23;;;;;;;4.15;1.55;;;;;;;18.76;46.55;95807.34;4910678;28;20284;-84
2023/07/14 04:37:49;;;;;;;3.53;1.70;;;;;;;18.91;46.16;95801.00;4931266;28;20264;-82
2023/07/14 04:40:14;;;;;;;4.65;1.90;;;;;;;18.98;45.78;95800.19;4929726;29;20557;-81
2023/07/14 04:42:39;;;;;;;3.92;1.50;;;;;;;18.96;45.50;95797.75;4919628;29;20371;-81
2023/07/14 04:45:06;;;;;;;5.15;1.50;;;;;;;18.98;45.45;95800.19;4930647;28;20570;-78
2023/07/14 04:47:31;;;;;;;3.35;1.70;;;;;;;18.91;45.34;95801.00;4938411;28;20218;-78
2023/07/14 04:49:56;;;;;;;4.70;1.90;;;;;;;18.82;45.91;95803.97;4928038;28;20189;-81
2023/07/14 04:52:22;;;;;;;7.45;1.60;;;;;;;18.93;46.00;95804.22;4932169;29;20210;-82
2023/07/14 04:54:48;;;;;;;4.05;1.70;;;;;;;19.16;45.67;95806.56;4930189;29;20229;-83
2023/07/14 04:57:13;;;;;;;4.97;1.70;;;;;;;19.34;44.71;95803.41;4943870;29;20210;-82
2023/07/14 04:59:39;;;;;;;3.88;1.60;;;;;;;19.17;45.55;95810.00;4932024;28;20190;-83
2023/07/14 05:02:05;;;;;;;3.75;1.75;;;;;;;19.36;45.45;95804.06;4941742;28;20214;-83
2023/07/14 05:04:31;;;;;;;4.30;1.90;;;;;;;19.49;45.21;95798.84;4933505;29;20671;-83
2023/07/14 05:06:57;;;;;;;3.63;1.75;;;;;;;19.56;44.69;95800.69;4924689;29;20209;-83
2023/07/14 05:09:23;;;;;;;3.75;1.80;;;;;;;19.76;44.66;95801.59;4930529;29;20198;-83
2023/07/14 05:11:49;;;;;;;4.05;1.90;;;;;;;19.85;44.33;95795.13;4915492;29;20301;-81
2023/07/14 05:14:14;;;;;;;6.15;2.08;;;;;;;19.88;44.38;95789.47;4935773;29;20241;-83
2023/07/14 05:16:39;;;;;;;2.35;1.40;;;;;;;19.98;43.76;95792.53;4932547;29;20214;-83
2023/07/14 05:19:04;;;;;;;3.20;1.55;;;;;;;19.93;44.17;95794.94;4936961;29;20536;-82
2023/07/14 05:21:30;;;;;;;3.30;1.75;;;;;;;20.22;43.79;95783.22;4930926;28;20186;-83
2023/07/14 05:23:56;;;;;;;3.13;1.60;;;;;;;20.08;44.41;95792.16;4930874;28;20202;-83
2023/07/14 05:26:21;;;;;;;3.17;1.60;;;;;;;20.31;43.36;95786.47;4931167;28;20232;-81
2023/07/14 05:28:46;;;;;;;3.50;1.60;;;;;;;20.76;42.42;95790.16;4931439;28;20193;-83
2023/07/14 05:31:12;;;;;;;4.65;1.60;;;;;;;20.61;42.75;95793.00;4932156;28;20198;-83
2023/07/14 05:33:38;;;;;;;3.63;1.40;;;;;;;20.95;42.78;95788.50;4939495;29;20214;-83
2023/07/14 05:36:04;;;;;;;3.25;1.85;;;;;;;20.85;42.54;95801.31;4947400;28;20583;-84
2023/07/14 05:38:30;;;;;;;3.60;1.70;;;;;;;20.85;43.30;95794.22;4931302;29;20191;-78
2023/07/14 05:40:55;;;;;;;6.53;1.85;;;;;;;21.15;42.48;95794.53;4940322;28;20196;-79
2023/07/14 05:43:21;;;;;;;2.60;1.73;;;;;;;21.15;42.39;95791.91;4929243;29;20202;-78
2023/07/14 05:45:47;;;;;;;3.53;1.60;;;;;;;20.68;42.57;95794.84;5010791;28;20292;-80
2023/07/14 05:48:16;;;;;;;7.93;2.00;;;;;;;20.86;43.02;95797.66;4930830;29;20213;-80
2023/07/14 05:50:42;;;;;;;5.50;1.33;;;;;;;20.95;43.57;95804.34;4932288;28;20553;-79
2023/07/14 05:53:07;;;;;;;4.10;1.40;;;;;;;20.52;43.99;95791.59;4933283;29;20189;-79
2023/07/14 05:55:32;;;;;;;2.63;1.50;;;;;;;21.13;42.32;95788.66;4947395;28;20783;-78
2023/07/14 05:57:58;;;;;;;4.63;1.63;;;;;;;21.45;42.46;95792.22;4942091;29;20186;-79
2023/07/14 06:00:25;;;;;;;4.10;1.83;;;;;;;;;;4940036;28;20193;-80
2023/07/14 06:02:50;;;;;;;3.58;1.50;;;;;;;23.05;39.21;95795.44;4919940;29;20253;-78
2023/07/14 06:05:17;;;;;;;4.05;1.52;;;;;;;23.95;37.68;95789.53;4933437;29;20182;-77
2023/07/14 06:07:42;;;;;;;4.93;1.60;;;;;;;25.52;34.41;95794.28;4996649;28;20225;-78
2023/07/14 06:10:09;;;;;;;3.40;1.80;;;;;;;26.56;32.59;95800.25;4937967;29;20202;-77
2023/07/14 06:12:34;;;;;;;2.35;1.40;;;;;;;28.17;30.09;95805.34;4933466;29;20541;-78
2023/07/14 06:14:59;;;;;;;4.03;1.42;;;;;;;27.97;29.71;95797.16;4989217;28;20223;-79
2023/07/14 06:17:25;;;;;;;2.45;1.60;;;;;;;26.87;31.49;95798.09;4923177;28;20233;-79
2023/07/14 06:19:50;;;;;;;3.95;1.35;;;;;;;26.95;31.06;95789.69;4932512;28;20198;-79
2023/07/14 06:22:15;;;;;;;3.90;1.42;;;;;;;26.90;31.48;95787.72;4940096;28;20195;-79
2023/07/14 06:24:41;;;;;;;2.72;1.50;;;;;;;27.99;30.03;95792.34;4933222;28;20190;-79
2023/07/14 06:27:07;;;;;;;3.00;1.50;;;;;;;28.95;28.80;95776.41;4921678;29;20978;-79
2023/07/14 06:29:33;;;;;;;5.10;1.30;;;;;;;29.59;27.17;95773.53;4925475;28;20190;-78
2023/07/14 06:31:59;;;;;;;4.05;1.58;;;;;;;30.02;27.27;95776.88;4931369;28;20206;-79
2023/07/14 06:34:24;;;;;;;4.00;1.40;;;;;;;30.66;26.44;95779.19;4942108;28;20736;-78
2023/07/14 06:36:50;;;;;;;2.60;1.67;;;;;;;31.30;25.30;95769.69;4932293;28;20210;-79
2023/07/14 06:39:15;;;;;;;3.60;1.50;;;;;;;30.16;26.20;95764.63;5007572;28;20186;-78
2023/07/14 06:41:40;;;;;;;2.63;1.65;;;;;;;29.73;26.59;95757.81;4925503;29;20189;-78
2023/07/14 06:44:06;;;;;;;2.45;1.48;;;;;;;28.04;28.98;95767.59;4929333;28;20187;-78
2023/07/14 06:46:31;;;;;;;4.20;1.50;;;;;;;28.44;28.82;95753.81;4940715;28;20742;-78
2023/07/14 06:48:57;;;;;;;6.55;1.63;;;;;;;28.30;28.43;95760.66;4941822;28;20264;-82
2023/07/14 06:51:23;;;;;;;3.03;1.50;;;;;;;29.33;27.64;95761.09;4933139;29;20895;-82
2023/07/14 06:53:49;;;;;;;3.55;1.58;;;;;;;28.01;29.53;95762.78;4931694;29;20284;-83
2023/07/14 06:56:14;;;;;;;3.25;1.38;;;;;;;29.59;26.96;95762.03;4931494;28;20289;-83
2023/07/14 06:58:40;;;;;;;2.53;1.42;;;;;;;30.76;26.20;95758.78;4932328;29;20487;-83
2023/07/14 07:01:06;;;;;;;3.63;1.77;;;;;;;31.29;25.14;95771.59;4935167;28;20182;-83
2023/07/14 07:03:31;;;;;;;4.93;1.70;;;;;;;31.99;23.52;95762.72;4931677;29;20567;-83
2023/07/14 07:05:56;;;;;;;4.30;1.52;;;;;;;31.61;24.08;95770.38;4994775;28;20208;-83
2023/07/14 07:08:22;;;;;;;3.67;1.80;;;;;;;31.91;23.95;95769.47;4932832;29;20205;-81
2023/07/14 07:10:48;;;;;;;2.50;1.40;;;;;;;30.44;26.11;95763.31;4988229;28;20214;-82
2023/07/14 07:13:14;;;;;;;5.05;1.85;;;;;;;32.28;23.97;95771.66;4993973;28;20182;-83
2023/07/14 07:15:40;;;;;;;3.53;1.40;;;;;;;31.93;24.17;95770.00;4930071;28;20205;-83
2023/07/14 07:18:06;;;;;;;4.22;1.70;;;;;;;32.34;23.41;95765.22;4943288;28;20756;-84
2023/07/14 07:20:32;;;;;;;3.92;1.67;;;;;;;32.56;23.53;95758.56;4931801;28;20182;-83
2023/07/14 07:22:58;;;;;;;2.78;1.80;;;;;;;31.07;25.15;95757.66;4939567;29;20531;-84
2023/07/14 07:25:23;;;;;;;2.65;1.70;;;;;;;31.24;25.28;95762.75;5012739;28;20185;-82
2023/07/14 07:27:48;;;;;;;2.10;1.70;;;;;;;30.18;26.57;95770.53;4942283;29;20201;-84
2023/07/14 07:30:14;;;;;;;4.50;1.95;;;;;;;30.71;26.15;95763.06;4949654;29;20243;-84
2023/07/14 07:32:41;;;;;;;4.78;2.00;;;;;;;30.35;26.38;95769.47;4937525;28;20276;-84
2023/07/14 07:35:07;;;;;;;2.60;1.42;;;;;;;30.22;26.41;95764.66;4940580;29;20190;-83
2023/07/14 07:37:33;;;;;;;2.50;1.73;;;;;;;30.49;26.63;95757.16;4931505;29;20579;-84
2023/07/14 07:39:59;;;;;;;4.03;1.45;;;;;;;31.42;25.71;95755.97;4931569;28;20194;-84
2023/07/14 07:42:24;;;;;;;3.90;1.52;;;;;;;30.99;26.57;95758.22;4939666;29;20183;-83
2023/07/14 07:44:50;;;;;;;3.40;1.50;;;;;;;30.85;25.70;95751.81;4937382;28;20197;-84
2023/07/14 07:47:15;;;;;;;2.88;1.83;;;;;;;30.80;26.24;95747.25;4934850;29;20217;-83
2023/07/14 07:49:41;;;;;;;3.63;1.65;;;;;;;31.14;26.17;95752.00;4940727;28;20194;-84
2023/07/14 07:52:07;;;;;;;4.25;2.03;;;;;;;30.91;26.14;95748.81;4918632;28;20229;-83
2023/07/14 07:54:32;;;;;;;3.17;2.03;;;;;;;31.77;25.60;95745.09;4933104;28;20612;-83
2023/07/14 07:56:58;;;;;;;3.00;1.45;;;;;;;30.62;25.67;95737.84;4936906;29;20214;-82
2023/07/14 07:59:23;;;;;;;2.45;1.40;;;;;;;30.24;26.78;95727.69;5008409;28;20198;-82
2023/07/14 08:01:48;;;;;;;4.07;1.60;;;;;;;30.83;26.30;95724.44;5013151;28;20182;-81
2023/07/14 08:04:16;;;;;;;5.57;2.10;;;;;;;30.98;25.25;95727.09;4941196;29;20299;-81
2023/07/14 08:06:41;;;;;;;3.38;1.63;;;;;;;29.39;27.13;95733.31;4923324;28;20237;-81
2023/07/14 08:09:06;;;;;;;5.53;1.55;;;;;;;30.32;25.16;95727.16;4948329;28;20194;-81
2023/07/14 08:11:33;;;;;;;4.28;1.45;;;;;;;29.32;27.41;95730.06;4940952;29;20213;-81
2023/07/14 08:14:01;;;;;;;5.45;1.88;;;;;;;28.71;28.07;95724.34;4941347;28;20244;-81
2023/07/14 08:16:27;;;;;;;4.53;1.70;;;;;;;28.87;27.65;95723.41;4935018;28;20237;-81
2023/07/14 08:18:52;;;;;;;3.92;1.65;;;;;;;28.54;28.58;95726.41;4992006;28;20299;-80
2023/07/14 08:21:17;;;;;;;3.45;1.50;;;;;;;28.38;28.76;95715.59;4934471;28;20190;-81
2023/07/14 08:23:43;;;;;;;3.58;1.50;;;;;;;28.17;28.95;95719.13;4940755;28;20190;-77
2023/07/14 08:26:09;;;;;;;5.72;1.50;;;;;;;27.29;29.20;95719.25;4933369;28;20353;-78
2023/07/14 08:28:34;;;;;;;4.22;1.70;;;;;;;26.88;29.99;95715.25;4944922;28;20221;-80
2023/07/14 08:31:03;;;;;;;2.88;1.73;;;;;;;26.70;29.85;95718.97;4931683;28;20205;-78
2023/07/14 08:33:29;;;;;;;5.70;1.60;;;;;;;26.69;30.00;95712.03;5007047;28;20195;-78
2023/07/14 08:35:55;;;;;;;3.20;1.70;;;;;;;26.87;30.36;95723.47;4926379;29;20222;-78
2023/07/14 08:38:21;;;;;;;4.70;1.67;;;;;;;27.06;29.61;95711.50;4930567;28;20221;-78
2023/07/14 08:40:53;;;;;;;2.72;1.50;;;;;;;27.02;30.39;95707.69;4925316;29;20669;-78
2023/07/14 08:43:36;;;;;;;6.75;1.63;;;;;;;27.72;28.40;95712.28;4928208;28;20219;-78
2023/07/14 08:46:12;;;;;;;6.00;1.60;;;;;;;27.69;29.67;95710.13;4939427;29;21017;-78
2023/07/14 08:48:39;;;;;;;5.38;1.70;;;;;;;27.61;29.23;95715.88;5003611;28;20190;-77
2023/07/14 08:51:15;;;;;;;4.32;1.75;;;;;;;27.91;28.74;95710.06;4936710;28;20328;-78
2023/07/14 08:53:45;;;;;;;4.18;1.45;;;;;;;27.03;30.19;95711.97;4934188;29;20273;-77
2023/07/14 08:56:11;;;;;;;3.30;1.58;;;;;;;27.67;29.39;95712.25;4930663;29;20237;-78
2023/07/14 08:58:38;;;;;;;3.92;1.70;;;;;;;26.77;30.93;95708.97;4925594;29;20193;-78
2023/07/14 09:01:09;;;;;;;3.10;1.70;;;;;;;27.28;30.48;95711.50;4934779;29;20197;-78
2023/07/14 09:03:46;;;;;;;3.95;1.63;;;;;;;27.43;30.42;95711.69;5005467;28;20194;-79
2023/07/14 09:06:17;;;;;;;2.88;1.60;;;;;;;27.29;29.97;95713.91;4942254;29;20296;-79
2023/07/14 09:08:43;;;;;;;3.95;1.75;;;;;;;27.46;29.20;95713.84;4918956;29;20198;-78
2023/07/14 09:11:15;;;;;;;5.55;1.40;;;;;;;27.53;29.62;95708.31;4939950;29;20206;-78
2023/07/14 09:14:09;;;;;;;7.50;1.88;;;;;;;27.45;29.60;95716.75;4917552;29;20194;-78
2023/07/14 09:16:38;;;;;;;2.42;1.70;;;;;;;27.16;31.05;95711.63;4937118;28;20216;-78
2023/07/14 09:19:17;;;;;;;6.85;2.00;;;;;;;27.26;31.33;95708.28;5009296;28;20190;-79
2023/07/14 09:21:48;;;;;;;2.78;1.60;;;;;;;27.79;29.93;95712.91;4934447;28;20190;-77
2023/07/14 09:24:56;;;;;;;7.70;1.80;;;;;;;27.90;28.33;95701.25;4937635;29;20574;-82
2023/07/14 09:27:29;;;;;;;3.33;1.55;;;;;;;28.14;29.42;95701.75;5027238;28;20212;-84
2023/07/14 09:29:55;;;;;;;4.20;1.58;;;;;;;28.12;28.66;95701.22;5011220;28;20189;-81
2023/07/14 09:32:30;;;;;;;6.18;1.70;;;;;;;28.14;28.93;95695.59;5013730;28;20248;-81
2023/07/14 09:35:04;;;;;;;3.47;1.50;;;;;;;27.40;30.13;95704.19;5028794;28;20212;-81
2023/07/14 09:37:37;;;;;;;2.10;1.80;;;;;;;26.67;31.61;95700.81;5024819;28;20254;-81
2023/07/14 09:40:18;;;;;;;3.13;1.38;;;;;;;26.92;30.47;95703.03;5013667;28;20569;-81
2023/07/14 09:42:45;;;;;;;2.80;1.58;;;;;;;27.06;30.17;95696.31;5015006;28;20194;-82
2023/07/14 09:45:17;;;;;;;2.67;1.50;;;;;;;27.78;29.08;95695.28;5029629;28;20197;-83
2023/07/14 09:47:44;;;;;;;2.70;1.55;;;;;;;27.85;29.08;95690.56;5016546;28;20702;-83
2023/07/14 09:50:15;;;;;;;2.15;1.70;;;;;;;27.89;28.48;95688.97;5023702;28;20273;-82
2023/07/14 09:52:52;;;;;;;5.22;1.50;;;;;;;27.80;29.70;95687.81;5018646;28;20221;-84
2023/07/14 09:55:19;;;;;;;4.10;1.80;;;;;;;27.57;29.72;95685.44;5032191;28;20190;-85
2023/07/14 09:57:46;;;;;;;3.90;2.08;;;;;;;27.22;29.91;95681.31;4995000;28;20947;-83
2023/07/14 10:00:29;;;;;;;2.97;1.80;;;;;;;27.02;30.05;95673.84;4910683;28;20210;-83
2023/07/14 10:03:06;;;;;;;7.40;1.70;;;;;;;27.26;30.26;95681.63;5008081;28;20191;-84
2023/07/14 10:05:36;;;;;;;4.97;1.67;;;;;;;27.62;29.42;95667.59;4942537;28;20197;-83
2023/07/14 10:08:10;;;;;;;4.18;1.60;;;;;;;27.78;29.18;95673.94;4924541;28;20183;-82
2023/07/14 10:10:42;;;;;;;3.38;1.60;;;;;;;27.62;29.04;95672.94;4943453;28;20186;-82
2023/07/14 10:13:19;;;;;;;3.67;1.80;;;;;;;27.08;30.28;95667.56;4997778;28;20194;-82
2023/07/14 10:15:53;;;;;;;4.53;1.80;;;;;;;27.34;30.50;95678.50;4928365;28;20213;-82
2023/07/14 10:18:18;;;;;;;3.97;1.80;;;;;;;27.21;30.76;95678.88;4932984;28;20269;-84
2023/07/14 10:20:55;;;;;;;3.45;1.65;;;;;;;27.40;30.53;95682.06;4936039;28;20206;-82
2023/07/14 10:23:21;;;;;;;3.17;1.60;;;;;;;27.68;30.04;95675.72;4908892;28;20193;-83
2023/07/14 10:25:50;;;;;;;4.50;1.52;;;;;;;27.71;29.57;95676.00;4910330;29;20217;-83
2023/07/14 10:28:19;;;;;;;3.38;1.80;;;;;;;28.16;29.54;95669.44;4931151;28;20191;-84
2023/07/14 10:30:55;;;;;;;4.68;1.63;;;;;;;27.90;30.35;95671.09;4942295;28;20339;-83
2023/07/14 10:33:36;;;;;;;4.28;1.80;;;;;;;28.34;29.91;95669.09;4932303;28;20193;-79
2023/07/14 10:36:07;;;;;;;3.42;1.58;;;;;;;27.97;29.47;95673.56;4952542;28;20587;-78
2023/07/14 10:38:38;;;;;;;2.45;1.75;;;;;;;28.05;29.44;95662.44;4937500;29;20559;-79
2023/07/14 10:41:09;;;;;;;3.65;1.83;;;;;;;27.72;28.93;95658.13;4948285;28;20547;-78
2023/07/14 10:43:43;;;;;;;3.45;2.00;;;;;;;27.68;29.98;95654.38;5009428;28;20202;-79
2023/07/14 10:46:13;;;;;;;1.98;1.40;;;;;;;28.04;28.86;95650.16;4930335;29;20289;-78
2023/07/14 10:48:43;;;;;;;3.40;1.85;;;;;;;28.17;29.04;95644.34;4931861;28;20189;-79
2023/07/14 10:51:29;;;;;;;4.15;1.77;;;;;;;27.80;30.11;95645.13;4947485;29;20702;-78
2023/07/14 10:53:59;;;;;;;4.18;1.83;;;;;;;28.23;29.65;95648.69;4931501;28;20205;-79
2023/07/14 10:56:39;;;;;;;2.35;1.52;;;;;;;28.84;27.88;95649.09;4924233;29;20294;-79
2023/07/14 10:59:27;;;;;;;3.08;1.80;;;;;;;28.82;28.15;95653.91;4987487;28;20186;-79
2023/07/14 11:02:00;;;;;;;3.40;1.60;;;;;;;28.39;29.72;95653.09;4926894;28;20336;-79
2023/07/14 11:04:38;;;;;;;2.83;1.77;;;;;;;28.49;29.48;95645.16;4921212;29;20676;-79
2023/07/14 11:07:05;;;;;;;4.30;1.30;;;;;;;28.89;28.48;95635.78;4930896;29;20236;-79
2023/07/14 11:09:31;;;;;;;3.10;1.55;;;;;;;28.63;28.11;95642.03;4931596;29;20209;-78
2023/07/14 11:12:08;;;;;;;11.57;1.75;;;;;;;28.23;27.85;95633.47;4928546;29;20228;-78
2023/07/14 11:15:11;;;;;;;3.80;1.75;;;;;;;28.55;28.03;95642.53;4940014;29;20198;-79
2023/07/14 11:17:43;;;;;;;4.28;1.52;;;;;;;27.73;29.22;95631.19;4940170;28;20586;-79
2023/07/14 11:20:33;;;;;;;4.20;1.73;;;;;;;27.63;29.03;95637.22;4929882;29;20194;-79
2023/07/14 11:23:14;;;;;;;5.53;1.58;;;;;;;28.53;28.69;95639.28;4920534;29;20203;-82
2023/07/14 11:26:05;;;;;;;3.40;1.60;;;;;;;28.49;29.37;95626.47;4922959;28;20273;-78
2023/07/14 11:28:48;;;;;;;3.45;1.70;;;;;;;28.15;29.11;95625.13;4928633;28;20202;-78
2023/07/14 11:31:24;;;;;;;2.53;1.63;;;;;;;28.28;28.92;95624.69;4946346;28;20190;-79
2023/07/14 11:34:06;;;;;;;2.25;1.30;;;;;;;28.31;28.60;95626.88;5008347;28;20198;-79
2023/07/14 11:36:40;;;;;;;3.67;2.00;;;;;;;28.65;28.13;95611.31;4938237;28;20233;-78
2023/07/14 11:39:14;;;;;;;2.75;1.40;;;;;;;28.75;27.67;95623.94;4943208;28;20668;-79
2023/07/14 11:41:40;;;;;;;1.67;1.45;;;;;;;29.37;26.59;95617.75;4921827;28;20564;-79